METAR AND TAF INFORMATION
METAR FOR EDDN
ADDS - METARS form results

(2107 UTC 07 August 2020)
Data provider http://aviationweather.gov/metar/data/
 
METAR text: EDDN 072050Z 09007KT CAVOK 24/15 Q1021
Conditions at: EDDN (NUERNBERG , DE) observed 2050 UTC 07 August 2020
Temperature: 24.0°C (75°F)
Dewpoint: 15.0°C (59°F) [RH = 57%]
Pressure (altimeter): 30.15 inches Hg (1021.0 mb)
Winds: from the E (90 degrees) at 8 MPH (7 knots; 3.6 m/s)
Visibility: 6 or more miles (10+ km)
Ceiling: ceiling and visibility are OK
Clouds: unknown
Weather: no significant weather observed at this time

METAR text: EDDN 072020Z 10007KT CAVOK 24/14 Q1021
Conditions at: EDDN (NUERNBERG , DE) observed 2020 UTC 07 August 2020
Temperature: 24.0°C (75°F)
Dewpoint: 14.0°C (57°F) [RH = 54%]
Pressure (altimeter): 30.15 inches Hg (1021.0 mb)
Winds: from the E (100 degrees) at 8 MPH (7 knots; 3.6 m/s)
Visibility: 6 or more miles (10+ km)
Ceiling: ceiling and visibility are OK
Clouds: unknown
Weather: no significant weather observed at this time

Forecast for: EDDN (NUERNBERG , DE)
Text: TAF EDDN 071700Z 0718/0818 09007KT CAVOK
Forecast period: 1800 UTC 07 August 2020 to 1800 UTC 08 August 2020
Forecast type: FROM: standard forecast or significant change
Winds: from the E (90 degrees) at 8 MPH (7 knots; 3.6 m/s)
Visibility: 6 or more miles (10+ km)
Ceiling: unknown
Clouds: missing
Weather: NSW  (no significant weather)
Text: BECMG 0718/0719 VRB02KT
Forecast period: 1800 UTC 07 August 2020 to 0900 UTC 08 August 2020
Forecast type: BECOMING: Conditions expected to become as follows by 1900 UTC 07 August 2020
Winds: variable direction winds at 2 MPH (2 knots; 1.0 m/s)
Visibility: 6 or more miles (10+ km)
Ceiling: unknown
Clouds: missing
Weather: NSW  (no significant weather)
Text: BECMG 0809/0811 12005KT
Forecast period: 0900 to 1800 UTC 08 August 2020
Forecast type: BECOMING: Conditions expected to become as follows by 1100 UTC 08 August 2020
Winds: from the ESE (120 degrees) at 6 MPH (5 knots; 2.6 m/s)
Visibility: 6 or more miles (10+ km)
Ceiling: unknown
Clouds: missing
Weather: NSW  (no significant weather)

 AIRPORT MAP

 RUNWAY INFORMATION
Runway 10 Runway length 8858 ft Runway width 148 ft
Runway elevation 1022 ft Runway displaced threshold 0 ft Runway heading 99
Runway 28 Runway length 8858 ft Runway width 148 ft
Runway elevation 1046 ft Runway displaced threshold 0 ft Runway heading 279

 AIRPORT FREQUENCIES
Type AFIS Name MUNCHEN IN Frequency 120.65 MHZ
Type ATIS Name ATIS Frequency 123.075 MHZ
Type DIR Name DIR Frequency 119.475 MHZ
Type GND Name GND Frequency 118.1 MHZ
Type RDR Name MUNCHEN RA Frequency 118.975 MHZ
Type TWR Name TWR Frequency 118.3 MHZ

 AIRPORT NEAR NAVIGATION AIDS
Type DME Name Nurnberg Frequency 113100 KHZ
Type NDB Name Rothenbach Frequency 415 KHZ



Powered by Virtual Airlines Manager [v2.6.2]

Impressum | Datenschutz